Time;durP1;ratioP1;P1;durP2;ratioP2;P2;SDS_P1;SDS_P2;PMS_P1;PMS_P2;Temp;Humidity;BMP_temperature;BMP_pressure;BME280_temperature;BME280_humidity;BME280_pressure;Samples;Min_cycle;Max_cycle;Signal;HPM_P1;HPM_P2
2023/06/03 00:00:43;;;;;;;8.18;2.97;;;13.50;99.90;;;13.77;100.00;100423.88;4911902;29;20259;-74
2023/06/03 00:03:13;;;;;;;6.93;2.83;;;13.50;99.90;;;13.76;100.00;100438.03;4909949;29;20693;-74
2023/06/03 00:05:42;;;;;;;7.93;2.72;;;13.40;99.90;;;13.67;100.00;100431.88;4910494;29;20243;-74
2023/06/03 00:08:10;;;;;;;7.15;2.92;;;13.40;99.90;;;13.62;100.00;100438.97;4912384;29;20242;-74
2023/06/03 00:10:37;;;;;;;7.70;2.97;;;13.20;99.90;;;13.51;100.00;100447.00;4904857;29;20235;-75
2023/06/03 00:13:04;;;;;;;4.07;1.70;;;13.30;99.90;;;13.60;100.00;100454.94;4906202;29;20274;-75
2023/06/03 00:15:31;;;;;;;5.40;2.13;;;13.30;99.90;;;13.59;100.00;100453.16;4907397;29;20242;-74
2023/06/03 00:17:58;;;;;;;6.53;2.38;;;13.30;99.90;;;13.51;100.00;100462.94;4911318;29;20245;-74
2023/06/03 00:20:28;;;;;;;9.02;3.38;;;;;;;13.67;100.00;100485.03;4908700;29;20251;-74
2023/06/03 00:22:55;;;;;;;6.55;2.47;;;13.30;99.90;;;13.47;100.00;100466.47;4904316;29;20259;-74
2023/06/03 00:25:23;;;;;;;5.20;2.15;;;13.20;99.90;;;13.52;100.00;100469.13;4914105;29;20243;-74
2023/06/03 00:27:50;;;;;;;7.03;2.58;;;;;;;13.48;100.00;100478.88;4912788;29;20253;-75
2023/06/03 00:30:18;;;;;;;5.63;2.10;;;;;;;13.52;100.00;100493.91;4910231;29;20227;-74
2023/06/03 00:32:45;;;;;;;8.60;2.80;;;;;;;13.34;100.00;100492.19;4905270;29;20243;-74
2023/06/03 00:35:13;;;;;;;6.03;2.13;;;13.00;99.90;;;13.36;100.00;100497.50;4903671;29;20238;-74
2023/06/03 00:37:41;;;;;;;8.05;2.92;;;;;;;13.31;100.00;100493.97;4889349;29;20240;-74
2023/06/03 00:40:09;;;;;;;8.18;2.72;;;13.10;99.90;;;13.27;100.00;100498.38;4908225;29;20768;-74
2023/06/03 00:42:37;;;;;;;6.35;2.28;;;;;;;13.31;100.00;100512.53;4911220;29;20239;-74
2023/06/03 00:45:04;;;;;;;7.80;2.78;;;13.00;99.90;;;13.34;100.00;100521.41;4905005;29;20243;-74
2023/06/03 00:47:32;;;;;;;8.05;2.80;;;;;;;13.18;100.00;100516.09;4905816;29;20325;-74
2023/06/03 00:50:00;;;;;;;6.00;2.30;;;12.90;99.90;;;13.13;100.00;100529.34;4907841;29;20235;-74
2023/06/03 00:52:27;;;;;;;5.68;2.13;;;12.90;99.90;;;13.26;100.00;100541.75;4901183;29;20239;-74
2023/06/03 00:54:54;;;;;;;7.03;2.40;;;;;;;13.23;100.00;100539.09;4911240;29;20235;-74
2023/06/03 00:57:22;;;;;;;7.60;2.58;;;;;;;13.19;100.00;100542.66;4909221;29;20298;-74
2023/06/03 00:59:49;;;;;;;6.95;2.80;;;12.90;99.90;;;13.09;100.00;100538.19;4918216;29;20246;-74
2023/06/03 01:02:17;;;;;;;6.13;2.22;;;12.70;99.90;;;13.14;100.00;100544.38;4906183;29;20239;-74
2023/06/03 01:04:48;;;;;;;9.80;3.45;;;12.70;99.90;;;13.16;100.00;100549.69;4910531;29;20716;-74
2023/06/03 01:07:56;;;;;;;6.75;2.53;;;12.80;99.90;;;13.11;100.00;100541.72;4909389;29;20238;-74
2023/06/03 01:10:51;;;;;;;8.07;2.67;;;12.70;99.90;;;13.15;100.00;100556.78;4890960;29;20243;-74
2023/06/03 01:13:28;;;;;;;6.57;2.67;;;12.70;99.90;;;12.96;100.00;100541.69;4915887;29;20235;-74
2023/06/03 01:16:04;;;;;;;5.25;2.03;;;12.70;99.90;;;13.08;100.00;100558.53;4907368;29;20249;-74
2023/06/03 01:18:35;;;;;;;7.93;2.88;;;12.50;99.90;;;12.83;100.00;100543.44;4910958;29;20234;-74
2023/06/03 01:21:03;;;;;;;7.47;2.78;;;12.60;99.90;;;12.95;100.00;100556.72;4906148;29;20251;-74
2023/06/03 01:23:34;;;;;;;6.60;2.35;;;12.60;99.90;;;12.96;100.00;100566.47;4903826;29;20240;-74
2023/06/03 01:26:04;;;;;;;6.85;2.50;;;12.60;99.90;;;12.97;100.00;100573.53;4908111;29;20242;-74
2023/06/03 01:28:32;;;;;;;7.90;2.90;;;;;;;12.82;100.00;100562.91;4902086;29;20322;-74
2023/06/03 01:31:02;;;;;;;37.45;9.27;;;12.50;99.90;;;12.78;100.00;100569.09;4940163;23;20223;-80
2023/06/03 01:33:30;;;;;;;6.13;2.33;;;;;;;12.77;100.00;100565.53;4871091;29;20300;-81
2023/06/03 01:36:01;;;;;;;4.55;2.00;;;12.50;99.90;;;12.76;100.00;100576.16;4873843;29;20243;-81
2023/06/03 01:38:29;;;;;;;6.63;3.10;;;;;;;12.69;100.00;100579.69;4873003;29;20260;-80
2023/06/03 01:40:56;;;;;;;6.25;2.38;;;;;;;12.69;100.00;100588.53;4868801;29;20248;-81
2023/06/03 01:43:24;;;;;;;5.85;2.70;;;12.40;99.90;;;12.64;100.00;100594.69;4873816;29;20228;-81
2023/06/03 01:45:51;;;;;;;4.60;2.08;;;;;;;12.55;100.00;100598.22;4873977;29;20240;-80
2023/06/03 01:48:18;;;;;;;6.03;2.40;;;12.20;99.90;;;12.56;100.00;100612.38;4865060;29;20693;-79
2023/06/03 01:50:45;;;;;;;5.28;2.33;;;12.30;99.90;;;12.60;100.00;100620.34;4889139;29;20318;-80
2023/06/03 01:53:14;;;;;;;6.00;2.42;;;12.20;99.90;;;12.66;100.00;100630.09;4872779;29;20239;-80
2023/06/03 01:55:42;;;;;;;7.40;3.13;;;12.30;99.90;;;12.41;100.00;100621.13;4876556;29;20237;-80
2023/06/03 01:58:09;;;;;;;6.90;2.80;;;12.20;99.90;;;12.45;100.00;100625.59;4859042;29;20259;-81
2023/06/03 02:00:36;;;;;;;5.57;2.30;;;;;;;12.46;100.00;100638.84;4877563;29;20284;-79
2023/06/03 02:03:03;;;;;;;5.25;2.13;;;12.10;99.90;;;12.36;100.00;100639.69;4890340;29;20240;-79
2023/06/03 02:05:30;;;;;;;6.25;2.72;;;12.10;99.90;;;12.36;100.00;100652.94;4876472;29;20240;-81
2023/06/03 02:07:57;;;;;;;4.50;2.00;;;12.10;99.90;;;12.46;100.00;100670.69;4878640;29;20316;-81
2023/06/03 02:10:24;;;;;;;5.78;2.30;;;12.10;99.90;;;12.31;100.00;100661.75;4874257;29;20251;-80
2023/06/03 02:12:51;;;;;;;4.32;1.85;;;12.00;99.90;;;12.38;100.00;100683.00;4876582;29;20244;-81
2023/06/03 02:15:19;;;;;;;5.45;2.28;;;;;;;12.29;100.00;100690.91;4892653;29;20239;-79
2023/06/03 02:17:46;;;;;;;4.18;1.70;;;12.00;99.90;;;12.20;100.00;100688.22;4874870;29;20240;-79
2023/06/03 02:20:13;;;;;;;7.05;2.80;;;12.00;99.90;;;12.21;100.00;100686.44;4877167;29;20275;-79
2023/06/03 02:22:41;;;;;;;5.85;2.40;;;11.90;99.90;;;12.19;100.00;100699.69;4876614;29;20240;-80
2023/06/03 02:25:08;;;;;;;5.53;2.33;;;11.90;99.90;;;12.25;100.00;100710.34;4878419;29;20259;-81
2023/06/03 02:27:35;;;;;;;6.88;2.70;;;12.00;99.90;;;12.21;100.00;100715.59;4874830;29;20796;-79
2023/06/03 02:30:04;;;;;;;5.47;2.15;;;11.90;99.90;;;12.29;100.00;100714.78;4868389;29;20248;-79
2023/06/03 02:32:32;;;;;;;6.22;2.55;;;11.90;99.90;;;12.24;100.00;100713.88;4867528;29;20244;-78
2023/06/03 02:34:59;;;;;;;7.28;2.72;;;11.90;99.90;;;12.27;100.00;100723.59;4870110;29;20323;-78
2023/06/03 02:37:27;;;;;;;6.90;2.78;;;11.90;99.90;;;12.16;100.00;100723.53;4869066;29;20240;-78
2023/06/03 02:39:54;;;;;;;5.10;2.10;;;11.90;99.90;;;12.05;100.00;100718.16;4877470;29;20236;-78
2023/06/03 02:42:21;;;;;;;9.15;3.50;;;11.80;99.90;;;12.15;100.00;100748.28;4868132;29;20244;-78
2023/06/03 02:44:49;;;;;;;3.95;1.60;;;11.80;99.90;;;12.08;100.00;100741.16;4882068;29;20232;-79
2023/06/03 02:47:16;;;;;;;4.20;1.75;;;;;;;12.01;100.00;100741.97;4878002;29;20237;-79
2023/06/03 02:49:44;;;;;;;4.40;1.90;;;11.80;99.90;;;12.06;100.00;100758.81;4880528;29;20262;-79
2023/06/03 02:52:11;;;;;;;5.60;2.17;;;11.70;99.90;;;11.99;100.00;100764.94;4881056;29;20244;-79
2023/06/03 02:54:38;;;;;;;5.47;2.03;;;11.70;99.90;;;11.95;100.00;100766.66;4882342;29;20251;-79
2023/06/03 02:57:07;;;;;;;5.30;2.15;;;11.70;99.90;;;11.94;100.00;100774.59;4879895;29;20245;-80
2023/06/03 02:59:34;;;;;;;6.72;2.53;;;11.60;99.90;;;11.99;100.00;100786.13;4882676;29;20236;-80
2023/06/03 03:02:01;;;;;;;4.95;2.20;;;11.70;99.90;;;11.87;100.00;100789.56;4883710;29;20240;-80
2023/06/03 03:04:33;;;;;;;6.03;2.35;;;11.60;99.90;;;11.83;100.00;100788.66;4876972;29;20258;-80
2023/06/03 03:07:01;;;;;;;4.38;1.77;;;11.50;99.90;;;11.97;100.00;100802.03;4879904;29;20236;-80
2023/06/03 03:09:28;;;;;;;6.55;2.53;;;11.70;99.90;;;11.85;100.00;100805.44;4881761;29;20244;-79
2023/06/03 03:11:55;;;;;;;4.30;1.83;;;11.60;99.90;;;11.91;100.00;100807.28;4880655;29;20278;-79
2023/06/03 03:14:22;;;;;;;8.88;2.90;;;11.60;99.90;;;11.82;100.00;100820.44;4881290;29;20255;-79
2023/06/03 03:16:50;;;;;;;5.18;2.08;;;11.60;99.90;;;11.90;100.00;100825.81;4880834;29;20244;-78
2023/06/03 03:19:17;;;;;;;4.47;2.08;;;11.60;99.90;;;11.91;100.00;100830.22;4880321;29;20240;-78
2023/06/03 03:21:45;;;;;;;4.57;1.90;;;11.60;99.90;;;11.85;100.00;100833.72;4892190;29;20229;-78
2023/06/03 03:24:13;;;;;;;4.05;1.83;;;11.60;99.90;;;11.80;100.00;100835.44;4886397;29;20244;-79
2023/06/03 03:26:41;;;;;;;4.43;1.90;;;11.50;99.90;;;11.66;100.00;100842.28;4879681;29;20279;-80
2023/06/03 03:29:08;;;;;;;5.55;2.35;;;11.50;99.90;;;11.72;100.00;100852.97;4880743;29;20548;-80
2023/06/03 03:31:35;;;;;;;4.65;2.05;;;11.50;99.90;;;11.84;100.00;100861.97;4880100;29;20244;-80
2023/06/03 03:34:04;;;;;;;4.18;1.90;;;11.50;99.90;;;11.76;100.00;100876.88;4888136;29;20299;-80
2023/06/03 03:36:31;;;;;;;4.50;2.13;;;11.30;99.90;;;11.76;100.00;100875.97;4880580;29;20252;-79
2023/06/03 03:39:04;;;;;;;4.75;2.05;;;11.50;99.90;;;11.68;100.00;100883.81;4879350;29;20239;-79
2023/06/03 03:41:32;;;;;;;4.63;1.92;;;11.50;99.90;;;11.72;100.00;100880.34;4878311;29;20251;-78
2023/06/03 03:43:59;;;;;;;4.78;2.13;;;11.40;99.90;;;11.77;100.00;100897.22;4877309;29;20244;-78
2023/06/03 03:46:27;;;;;;;5.63;2.38;;;11.50;99.90;;;11.76;100.00;100892.75;4878064;29;20245;-78
2023/06/03 03:48:54;;;;;;;3.80;1.70;;;;;;;11.80;100.00;100891.97;4878757;29;20236;-78
2023/06/03 03:51:21;;;;;;;5.40;2.35;;;11.50;99.90;;;11.70;100.00;100900.63;4877243;29;20342;-78
2023/06/03 03:53:49;;;;;;;4.97;2.05;;;11.40;99.90;;;11.65;100.00;100904.06;4877458;29;20658;-78
2023/06/03 03:56:20;;;;;;;4.90;2.20;;;11.40;99.90;;;11.67;100.00;100913.81;4878224;29;20311;-78
2023/06/03 03:58:48;;;;;;;5.05;2.08;;;;;;;11.62;100.00;100915.53;4874095;29;20343;-80
2023/06/03 04:01:23;;;;;;;5.78;2.50;;;11.40;99.90;;;11.74;100.00;100920.13;4878020;29;20244;-80
2023/06/03 04:03:57;;;;;;;5.07;2.10;;;11.40;99.90;;;11.67;100.00;100916.47;4876162;29;20243;-78
2023/06/03 04:06:36;;;;;;;4.22;1.80;;;11.40;99.90;;;11.71;100.00;100930.69;4879044;29;20244;-79
2023/06/03 04:09:08;;;;;;;6.00;2.53;;;11.40;99.90;;;11.67;100.00;100932.38;4873502;29;20236;-78
2023/06/03 04:11:43;;;;;;;6.25;2.47;;;11.40;99.90;;;11.69;100.00;100927.09;4874746;29;20237;-81
2023/06/03 04:14:14;;;;;;;4.15;1.80;;;11.40;99.90;;;11.74;100.00;100942.19;4878889;29;20245;-81
2023/06/03 04:16:54;;;;;;;7.05;2.80;;;11.40;99.90;;;11.74;100.00;100942.19;4875337;29;20626;-80
2023/06/03 04:19:30;;;;;;;4.45;1.90;;;11.40;99.90;;;11.56;100.00;100944.59;4875833;29;20296;-79
2023/06/03 04:22:05;;;;;;;3.25;1.50;;;11.40;99.90;;;11.70;100.00;100956.28;4879094;29;20771;-79
2023/06/03 04:24:37;;;;;;;3.88;1.83;;;11.40;99.90;;;11.70;100.00;100964.22;4876976;29;20272;-79
2023/06/03 04:27:08;;;;;;;3.90;1.73;;;11.40;99.90;;;11.72;100.00;100970.44;4872878;29;20244;-79
2023/06/03 04:29:35;;;;;;;3.90;1.88;;;11.40;99.90;;;11.70;100.00;100971.25;4875140;29;20256;-79
2023/06/03 04:32:03;;;;;;;4.47;2.03;;;11.50;99.90;;;11.74;100.00;100989.91;4876961;29;20243;-78
2023/06/03 04:34:30;;;;;;;4.00;1.88;;;11.50;99.90;;;11.87;100.00;100990.09;4878973;29;20609;-79
2023/06/03 04:36:57;;;;;;;5.55;2.28;;;11.50;99.90;;;11.89;100.00;100983.03;4871576;29;20258;-78
2023/06/03 04:39:25;;;;;;;4.90;2.25;;;11.60;99.90;;;11.91;100.00;100991.91;4874267;29;20263;-80
2023/06/03 04:41:53;;;;;;;8.52;3.35;;;;;;;11.85;100.00;100990.06;4868024;29;20235;-81
2023/06/03 04:44:21;;;;;;;6.60;2.70;;;11.60;99.90;;;11.89;100.00;100996.28;4867513;29;20327;-79
2023/06/03 04:46:49;;;;;;;10.70;4.20;;;;;;;11.94;100.00;101006.09;4869924;29;20274;-81
2023/06/03 04:49:17;;;;;;;6.43;2.78;;;11.60;99.90;;;11.97;100.00;101000.81;4870833;29;20244;-80
2023/06/03 04:51:44;;;;;;;7.05;2.88;;;;;;;12.06;100.00;100995.63;4866615;29;20240;-79
2023/06/03 04:54:12;;;;;;;3.85;1.70;;;;;;;12.16;100.00;101008.13;4869040;29;20255;-80
2023/06/03 04:56:39;;;;;;;3.55;1.67;;;11.80;99.90;;;12.20;100.00;101005.50;4878579;29;20254;-79
2023/06/03 04:59:07;;;;;;;4.00;1.80;;;11.90;99.90;;;12.17;100.00;101006.34;4876718;29;20705;-78
2023/06/03 05:01:36;;;;;;;5.57;2.22;;;;;;;12.21;100.00;101008.19;4877962;29;20246;-80
2023/06/03 05:04:08;;;;;;;4.97;2.03;;;11.90;99.90;;;12.33;100.00;101021.56;4877794;29;20277;-80
2023/06/03 05:06:36;;;;;;;5.03;2.20;;;12.00;99.90;;;12.39;100.00;101026.06;4875438;29;20244;-80
2023/06/03 05:09:04;;;;;;;3.90;1.85;;;12.10;99.90;;;12.53;100.00;101015.59;4877511;29;20275;-83
2023/06/03 05:11:31;;;;;;;3.90;1.67;;;12.20;99.90;;;12.51;100.00;101010.28;4874603;29;20240;-78
2023/06/03 05:13:58;;;;;;;3.92;1.80;;;12.20;99.90;;;12.56;100.00;101015.63;4869958;29;20256;-78
2023/06/03 05:16:25;;;;;;;5.22;2.35;;;12.20;99.90;;;12.62;100.00;101011.25;4873347;29;20237;-81
2023/06/03 05:18:52;;;;;;;4.15;2.05;;;12.30;99.90;;;12.67;100.00;101006.00;4875340;29;20225;-82
2023/06/03 05:21:23;;;;;;;10.40;4.40;;;12.30;99.90;;;12.79;100.00;101020.28;4905901;23;20335;-82
2023/06/03 05:23:50;;;;;;;7.82;2.72;;;;;;;12.89;100.00;101021.25;4873456;29;20243;-81
2023/06/03 05:26:18;;;;;;;5.18;2.20;;;;;;;12.93;100.00;101007.13;4875027;29;20232;-79
2023/06/03 05:28:46;;;;;;;5.03;2.08;;;;;;;13.07;100.00;101002.84;4881575;29;20244;-80
2023/06/03 05:31:13;;;;;;;4.25;1.90;;;12.70;99.90;;;12.95;100.00;101002.72;4876756;29;20241;-80
2023/06/03 05:33:41;;;;;;;3.85;1.88;;;12.70;99.90;;;13.12;100.00;101005.53;4877326;29;20357;-80
2023/06/03 05:36:08;;;;;;;4.50;2.00;;;12.80;99.90;;;13.27;100.00;101011.00;4872410;29;20252;-80
2023/06/03 05:38:36;;;;;;;4.38;2.00;;;;;;;13.27;100.00;100997.72;4870066;29;20250;-79
2023/06/03 05:41:04;;;;;;;5.07;2.40;;;;;;;13.42;100.00;100996.94;4866291;29;20676;-80
2023/06/03 05:43:32;;;;;;;3.97;2.00;;;;;;;13.54;100.00;100991.69;4874962;29;20295;-80
2023/06/03 05:45:59;;;;;;;6.30;2.70;;;13.20;99.90;;;13.66;100.00;100997.06;4874640;29;20235;-81
2023/06/03 05:48:26;;;;;;;5.30;2.25;;;13.30;99.90;;;13.62;100.00;100978.44;4877035;29;20244;-80
2023/06/03 05:50:55;;;;;;;7.97;3.03;;;13.40;99.90;;;13.75;100.00;100975.84;4873780;29;20231;-81
2023/06/03 05:53:25;;;;;;;5.22;2.33;;;13.50;99.90;;;13.83;100.00;100965.25;4875386;29;20240;-79
2023/06/03 05:55:52;;;;;;;3.65;1.88;;;13.50;99.90;;;14.06;100.00;100966.22;4877916;29;20273;-79
2023/06/03 05:58:21;;;;;;;2.05;1.20;;;13.70;99.90;;;14.13;100.00;100956.50;4876284;29;20252;-80
2023/06/03 06:00:49;;;;;;;4.65;1.92;;;13.90;99.90;;;14.29;100.00;100958.31;4885458;29;20240;-79
2023/06/03 06:03:16;;;;;;;3.83;1.60;;;13.90;99.90;;;14.39;100.00;100940.63;4877858;29;20252;-79
2023/06/03 06:05:45;;;;;;;4.88;2.22;;;14.20;99.90;;;14.53;100.00;100932.69;4876728;29;20236;-80
2023/06/03 06:08:12;;;;;;;3.70;1.58;;;;;;;14.53;100.00;100914.06;4877345;29;20248;-81
2023/06/03 06:10:40;;;;;;;3.95;1.92;;;;;;;14.43;100.00;100886.56;4873523;29;20264;-80
2023/06/03 06:13:08;;;;;;;3.33;1.30;;;14.10;99.90;;;14.49;100.00;100880.34;4862557;29;20259;-81
2023/06/03 06:15:35;;;;;;;4.97;2.08;;;;;;;14.63;100.00;100863.47;4890273;29;20275;-83
2023/06/03 06:18:03;;;;;;;4.13;1.80;;;14.30;99.90;;;14.86;100.00;100865.22;4874053;29;20267;-81
2023/06/03 06:20:30;;;;;;;3.83;1.88;;;14.40;99.90;;;15.03;100.00;100866.09;4870638;29;20236;-83
2023/06/03 06:22:58;;;;;;;2.13;1.17;;;;;;;15.14;100.00;100863.41;4859925;29;20264;-82
2023/06/03 06:25:25;;;;;;;4.53;2.08;;;;;;;15.08;100.00;100837.66;4877722;29;20240;-80
2023/06/03 06:27:52;;;;;;;5.28;2.30;;;14.90;99.90;;;15.28;100.00;100811.84;4878981;29;20247;-81
2023/06/03 06:30:21;;;;;;;4.45;2.08;;;14.80;99.90;;;15.12;100.00;100782.59;4899601;29;20236;-81
2023/06/03 06:32:51;;;;;;;3.70;1.73;;;14.80;99.90;;;15.16;100.00;100768.38;4879783;29;20608;-81
2023/06/03 06:35:19;;;;;;;3.10;1.50;;;15.10;99.90;;;15.57;100.00;100782.41;4878586;29;20242;-81
2023/06/03 06:37:47;;;;;;;5.10;2.20;;;15.10;99.90;;;15.79;100.00;100779.63;4877464;29;20245;-82
2023/06/03 06:40:21;;;;;;;4.25;2.40;;;15.30;99.90;;;15.82;100.00;100766.28;4880210;29;20240;-81
2023/06/03 06:42:49;;;;;;;7.65;3.50;;;15.40;99.90;;;15.84;100.00;100741.38;4874289;29;20678;-81
2023/06/03 06:45:23;;;;;;;3.97;1.90;;;16.60;99.90;;;15.82;100.00;100712.94;4884248;29;20239;-81
2023/06/03 06:47:57;;;;;;;4.30;2.10;;;15.50;99.90;;;16.04;100.00;100709.19;4880926;29;20266;-80
2023/06/03 06:50:50;;;;;;;5.10;2.22;;;15.80;99.90;;;16.12;100.00;100696.66;4878129;29;20236;-81
2023/06/03 06:53:19;;;;;;;4.25;1.90;;;15.80;99.90;;;16.28;100.00;100710.75;4875439;29;20293;-83
2023/06/03 06:55:56;;;;;;;3.38;1.73;;;15.90;99.90;;;16.33;100.00;100693.78;4876678;29;20236;-83
2023/06/03 06:58:29;;;;;;;4.43;2.20;;;15.90;99.90;;;16.44;100.00;100682.09;4880168;29;20240;-80
2023/06/03 07:01:00;;;;;;;6.63;2.95;;;;;;;16.60;100.00;100667.69;4876949;29;20287;-81
2023/06/03 07:03:28;;;;;;;3.53;1.67;;;;;;;16.84;100.00;100656.72;4884215;29;20252;-81
2023/06/03 07:05:55;;;;;;;4.90;2.03;;;;;;;16.77;100.00;100633.66;4876815;29;20232;-78
2023/06/03 07:08:24;;;;;;;4.55;2.08;;;16.50;99.90;;;17.00;100.00;100637.84;4875817;29;20240;-79
2023/06/03 07:10:57;;;;;;;8.43;3.72;;;16.70;99.90;;;17.00;100.00;100617.34;4876818;29;20237;-80
2023/06/03 07:13:24;;;;;;;3.70;1.70;;;16.70;99.90;;;16.95;100.00;100576.47;4877231;29;20284;-80
2023/06/03 07:15:51;;;;;;;4.10;1.90;;;16.60;99.90;;;17.20;100.00;100574.31;4877247;29;20243;-79
2023/06/03 07:18:21;;;;;;;3.80;1.77;;;;;;;17.20;100.00;100567.16;4874304;29;20233;-80
2023/06/03 07:20:49;;;;;;;4.25;1.73;;;16.90;99.90;;;17.46;100.00;100573.88;4880436;29;20232;-80
2023/06/03 07:23:26;;;;;;;3.83;1.80;;;17.00;99.90;;;17.21;100.00;100494.09;4879754;29;20236;-82
2023/06/03 07:25:55;;;;;;;3.40;1.80;;;16.90;99.90;;;17.42;100.00;100511.56;4893720;29;20282;-80
2023/06/03 07:28:33;;;;;;;4.18;2.50;;;17.00;99.90;;;17.40;100.00;100478.63;4876219;29;20247;-81
2023/06/03 07:31:06;;;;;;;4.75;2.10;;;17.10;99.90;;;17.51;100.00;100502.50;4875817;29;20240;-80
2023/06/03 07:33:39;;;;;;;4.47;2.10;;;17.20;99.90;;;17.44;100.00;100474.09;4874027;29;20244;-79
2023/06/03 07:36:06;;;;;;;3.33;1.67;;;17.20;99.90;;;17.64;100.00;100471.94;4880479;29;20245;-82
2023/06/03 07:39:04;;;;;;;5.38;2.35;;;17.30;99.90;;;17.79;100.00;100465.44;4879816;29;20340;-82
2023/06/03 07:41:51;;;;;;;3.55;1.70;;;17.40;99.90;;;17.83;100.00;100441.25;4882344;29;20236;-82
2023/06/03 07:44:47;;;;;;;5.15;2.25;;;17.60;99.90;;;18.14;100.00;100448.66;4877469;29;20244;-83
2023/06/03 07:47:16;;;;;;;3.92;1.90;;;17.60;99.90;;;18.18;100.00;100429.81;4874539;29;20244;-85
2023/06/03 07:49:48;;;;;;;3.70;1.67;;;17.90;99.90;;;17.99;100.00;100390.09;4885771;29;20274;-83
2023/06/03 07:52:19;;;;;;;5.68;2.72;;;17.70;99.90;;;18.12;100.00;100371.06;4859202;29;20260;-82
2023/06/03 07:54:46;;;;;;;4.25;2.05;;;17.80;99.90;;;18.21;100.00;100370.00;4873620;29;20233;-82
2023/06/03 07:57:15;;;;;;;4.18;2.00;;;17.80;99.90;;;18.21;100.00;100341.44;4881447;29;20247;-83
2023/06/03 07:59:58;;;;;;;4.28;2.15;;;18.00;99.90;;;18.56;100.00;100369.16;4879619;29;20267;-82
2023/06/03 08:02:25;;;;;;;3.88;1.80;;;18.20;99.90;;;17.95;100.00;100254.63;4874371;29;20240;-81
2023/06/03 08:04:55;;;;;;;5.43;2.20;;;18.10;99.90;;;18.60;100.00;100353.91;4891887;29;20347;-82
2023/06/03 08:07:24;;;;;;;3.55;1.75;;;;;;;18.92;100.00;100315.56;4884391;29;20244;-80
2023/06/03 08:09:52;;;;;;;3.58;2.05;;;18.50;99.90;;;18.87;100.00;100313.03;4876755;29;20678;-80
2023/06/03 08:12:30;;;;;;;3.75;1.85;;;18.50;99.90;;;19.01;100.00;100305.50;4878709;29;20244;-81
2023/06/03 08:14:57;;;;;;;5.68;2.53;;;;;;;18.92;100.00;100275.38;4871761;29;20244;-82
2023/06/03 08:17:40;;;;;;;2.38;1.30;;;18.60;99.90;;;19.47;100.00;100305.06;4876957;29;20246;-81
2023/06/03 08:20:10;;;;;;;4.43;2.03;;;19.20;99.90;;;19.49;100.00;100265.66;4873471;29;20251;-82
2023/06/03 08:22:42;;;;;;;4.20;2.05;;;19.10;99.90;;;19.11;100.00;100170.28;4871483;29;20265;-79
2023/06/03 08:25:10;;;;;;;5.13;2.40;;;;;;;19.09;100.00;100201.63;4868552;29;20240;-79
2023/06/03 08:27:38;;;;;;;5.85;2.55;;;18.90;99.90;;;19.70;100.00;100217.69;4869963;29;20240;-79
2023/06/03 08:30:07;;;;;;;4.60;2.15;;;19.30;99.90;;;19.70;100.00;100177.47;4873222;29;20239;-79
2023/06/03 08:32:38;;;;;;;6.05;2.75;;;19.30;99.90;;;19.81;100.00;100157.41;4869907;29;20229;-79
2023/06/03 08:35:10;;;;;;;6.95;2.78;;;19.50;99.90;;;19.85;100.00;100147.44;4876655;29;20616;-82
2023/06/03 08:37:38;;;;;;;2.70;1.40;;;19.50;99.90;;;19.82;100.00;100101.94;4874123;29;20240;-78
2023/06/03 08:40:16;;;;;;;3.13;1.40;;;19.50;99.90;;;19.94;100.00;100106.00;4879625;29;20231;-81
2023/06/03 08:42:48;;;;;;;3.45;1.50;;;19.80;99.50;;;20.28;100.00;100103.00;4873328;29;20647;-77
2023/06/03 08:45:18;;;;;;;3.60;1.92;;;19.60;98.70;;;19.67;100.00;99993.31;4869857;29;20239;-79
2023/06/03 08:48:06;;;;;;;4.00;1.88;;;19.60;99.00;;;20.06;100.00;100035.78;4873960;29;20232;-77
2023/06/03 08:50:35;;;;;;;2.95;1.45;;;19.80;99.10;;;20.19;100.00;100047.81;4870571;29;20288;-79
2023/06/03 08:53:09;;;;;;;3.15;1.55;;;20.10;99.30;;;20.54;100.00;100068.03;4873941;29;20247;-79
2023/06/03 08:55:38;;;;;;;3.53;1.85;;;20.10;99.90;;;20.47;100.00;100053.06;4874797;29;20232;-80
2023/06/03 08:58:36;;;;;;;4.03;1.70;;;20.40;99.10;;;20.55;100.00;99989.19;4879528;29;22223;-81
2023/06/03 09:01:03;;;;;;;3.40;1.67;;;20.40;98.70;;;20.41;100.00;99951.25;4873638;29;20232;-79
2023/06/03 09:03:32;;;;;;;3.85;2.00;;;20.10;98.60;;;20.90;100.00;99990.50;4875284;29;20236;-79
2023/06/03 09:06:00;;;;;;;2.72;1.55;;;20.50;98.70;;;21.08;100.00;99997.81;4875796;29;20251;-81
2023/06/03 09:08:28;;;;;;;2.85;1.35;;;20.60;99.40;;;21.21;100.00;99965.94;4872409;29;20244;-79
2023/06/03 09:10:56;;;;;;;4.47;2.03;;;20.70;97.20;;;20.94;100.00;99852.38;4873496;29;20247;-78
2023/06/03 09:13:23;;;;;;;2.92;1.48;;;20.70;97.60;;;21.06;100.00;99827.63;4877932;29;20239;-77
2023/06/03 09:15:51;;;;;;;3.22;1.58;;;20.80;96.70;;;21.15;100.00;99888.22;4887872;29;20231;-77
2023/06/03 09:18:18;;;;;;;2.95;1.45;;;20.80;98.40;;;21.41;100.00;99870.97;4874818;29;20366;-78
2023/06/03 09:20:48;;;;;;;3.00;1.73;;;21.30;98.40;;;21.81;100.00;99931.06;4876628;29;20236;-77
2023/06/03 09:23:17;;;;;;;1.98;1.25;;;21.30;98.60;;;21.44;100.00;99763.22;4874113;29;20231;-78
2023/06/03 09:25:44;;;;;;;1.80;1.10;;;21.30;96.20;;;21.99;100.00;99853.03;4876763;29;20231;-79
2023/06/03 09:28:12;;;;;;;2.60;1.52;;;21.60;97.10;;;22.04;100.00;99859.09;4876623;29;20251;-77
2023/06/03 09:30:42;;;;;;;1.27;0.98;;;21.90;96.80;;;22.16;100.00;99836.13;4866608;29;20240;-76
2023/06/03 09:33:09;;;;;;;1.42;0.93;;;21.90;97.00;;;22.45;100.00;99855.41;4888254;29;20240;-78
2023/06/03 09:35:37;;;;;;;2.35;1.45;;;22.10;97.50;;;22.55;100.00;99792.03;4877310;29;20240;-77
2023/06/03 09:38:05;;;;;;;2.83;1.77;;;22.20;96.20;;;22.85;100.00;99821.97;4878142;29;20294;-78
2023/06/03 09:40:34;;;;;;;1.92;1.08;;;22.60;97.10;;;23.33;100.00;99814.97;4875661;29;20299;-76
2023/06/03 09:43:11;;;;;;;1.67;1.02;;;22.80;96.60;;;23.28;99.38;99700.09;4878872;29;20235;-76
2023/06/03 09:45:38;;;;;;;1.35;0.90;;;22.90;95.30;;;23.29;100.00;99755.78;4876993;29;20243;-78
2023/06/03 09:48:05;;;;;;;2.72;1.88;;;23.10;95.20;;;22.93;100.00;99628.31;4876140;29;20273;-78
2023/06/03 09:50:32;;;;;;;1.73;1.20;;;23.00;95.00;;;23.43;96.93;99647.13;4890636;29;20240;-78
2023/06/03 09:53:01;;;;;;;2.60;1.52;;;23.20;94.20;;;23.12;96.80;99564.31;4870030;29;20303;-78
2023/06/03 09:55:32;;;;;;;2.63;1.70;;;22.90;94.40;;;22.73;97.43;99505.38;4864193;29;20330;-76
2023/06/03 09:58:06;;;;;;;3.83;2.10;;;22.70;94.40;;;23.39;100.00;99625.78;4864438;29;20235;-77
2023/06/03 10:00:59;;;;;;;2.33;1.33;;;22.80;96.30;;;22.91;97.25;99482.81;4874426;29;20235;-77
2023/06/03 10:03:28;;;;;;;1.50;0.90;;;22.60;94.40;;;23.96;95.73;99607.22;4872759;29;20246;-78
2023/06/03 10:05:56;;;;;;;2.22;1.25;;;;;;;24.15;98.56;99632.19;4871515;29;20330;-78
2023/06/03 10:08:32;;;;;;;4.75;1.83;;;23.80;95.50;;;24.01;97.68;99572.72;4871044;29;20241;-76
2023/06/03 10:11:01;;;;;;;2.30;1.52;;;23.80;95.10;;;24.03;97.90;99555.47;4881124;29;20246;-76
2023/06/03 10:13:28;;;;;;;3.25;1.77;;;23.80;94.90;;;24.32;97.01;99569.94;4871871;29;20232;-77
2023/06/03 10:15:58;;;;;;;2.65;1.83;;;24.10;94.80;;;24.08;94.46;99503.88;4870457;29;20258;-78
2023/06/03 10:18:42;;;;;;;2.80;1.77;;;24.00;93.60;;;24.68;100.00;99617.28;4873513;29;20258;-78
2023/06/03 10:21:11;;;;;;;1.50;0.90;;;24.20;96.10;;;24.63;93.62;99519.38;4876915;29;20246;-76
2023/06/03 10:23:42;;;;;;;1.30;0.80;;;24.30;94.80;;;23.75;92.66;99347.50;4880427;29;20236;-75
2023/06/03 10:26:10;;;;;;;3.13;1.95;;;23.70;93.70;;;24.62;95.10;99493.31;4875156;29;20239;-77
2023/06/03 10:28:38;;;;;;;1.40;1.08;;;23.90;94.90;;;24.70;92.71;99474.75;4879855;29;20231;-77